Hakon Mosby — LJIT — position and weather

sailwx.info

Track history (hours):
 
Tides and Currents Weather Stations Pressure Air Temp Water Temp Dewpoint Dewpoint Depression Visibility Wind Speed Wind Dir Waves Ship Positions

Oceanographic research ship Hakon Mosby (Norway)

Detailed information on ship capabilities available from University of Delaware's Ocean Information Center and ARCUS's ALIAS (Arctic Logistics Information and Support) project.

Last reported at 2014-Oct-01 20:00 UTC. Time now 2014-Oct-01 22:30 UTC.
Position N 71°00' E 024°24'.

Type: Dredging. MMSI: 258244000.

Wind from 150 at 12 knots

Barometer 1015.2 mb
Air temperature 8.7 ° C
Dewpoint 5.3 ° C
Water temperature 7.6 ° C

Date/timePositionNaut miles runAvg speedWind from/ knotsBaromVisibWave heightAir tempDewpointWater temp
2014-Oct-01 20:00N 71°00' E 024°24'4 3.9 150 / 121015.2 8.7 5.3 7.6
2014-Oct-01 19:00N 71°00' E 024°36'11 5.7 120 / 121015.8 8.0 3.2 7.5
2014-Oct-01 17:00N 70°54' E 025°06'7 3.6 160 / 101017.7 7.6 1.8 7.4
2014-Oct-01 15:00N 70°48' E 025°18'1313.4 180 / 101018.5 8.0-0.1 7.2
2014-Oct-01 14:00N 71°00' E 025°00'10 4.9 180 / 121018.6 7.7 0.2 7.6
2014-Oct-01 12:00N 71°06' E 025°24'6 5.8 190 / 101019.2 7.6-2.1 7.6
2014-Oct-01 11:00N 71°06' E 025°06'14 7.2 150 / 101019.5 7.3-1.3 7.6
2014-Oct-01 09:00N 70°54' E 025°30'16 7.8 190 / 41020.0 5.8-1.7 7.3
2014-Oct-01 07:00N 70°42' E 026°00'12 5.8 210 / 161021.3 4.8-0.8 7.6
2014-Oct-01 05:00N 70°36' E 025°30'7 7.2 220 / 121022.1 4.5-1.7 6.6
2014-Oct-01 04:00N 70°30' E 025°18'2 2.0 240 / 81022.1 4.6-1.8 6.5
2014-Oct-01 03:00N 70°30' E 025°24'1313.4 230 / 141022.7 5.0-1.6 6.8
2014-Oct-01 02:00N 70°42' E 025°42'8 8.4 210 / 101023.3 5.5-0.6 6.9
2014-Oct-01 01:00N 70°48' E 026°00'4 3.9 230 / 171023.3 6.0-1.2 7.4
2014-Oct-01 00:00N 70°48' E 026°12'0 0.0 230 / 141023.8 5.6 0.8 7.1
2014-Sep-30 23:00N 70°48' E 026°12'4 3.9 240 / 161024.2 6.3-0.4 7.0
2014-Sep-30 22:00N 70°48' E 026°00'8 8.4 230 / 171024.5 6.0 0.4 7.5
2014-Sep-30 21:00N 70°42' E 025°42'13 6.3 240 / 141024.0 5.3 0.5 7.2
2014-Sep-30 19:00N 70°54' E 025°54'0 0.0 290 / 161023.3 6.3 0.8 7.6
2014-Sep-30 18:00N 70°54' E 025°54'0 0.0 280 / 161023.8 5.4 0.7 7.6
2014-Sep-30 16:00N 70°54' E 025°54'0 0.0 300 / 101023.8 6.1 0.2 7.7
2014-Sep-30 14:00N 70°54' E 025°54'0 0.0 310 / 121023.8 5.3 0.8 7.6
2014-Sep-30 13:00N 70°54' E 025°54'1212.0 350 / 141023.2 6.1-0.2 7.4
2014-Sep-30 12:00N 70°42' E 025°54'1010.0 330 / 101023.3 3.9 0.1 7.1
2014-Sep-30 11:00N 70°36' E 025°30'13 6.3 340 / 161022.6 5.8-1.4 6.7
2014-Sep-30 09:00N 70°24' E 025°18'0 0.0 330 / 81021.5 5.3-0.3 6.1
2014-Sep-30 08:00N 70°24' E 025°18'0 0.0 320 / 141020.7 5.0-0.4 6.3
2014-Sep-30 07:00N 70°24' E 025°18'6 2.0 290 / 121019.7 4.4-0.2 6.1
2014-Sep-30 04:00N 70°24' E 025°36'13 6.3 320 / 121017.3 4.9-0.2 7.0
2014-Sep-30 02:00N 70°36' E 025°48'2 2.0 320 / 81016.0 5.0 0.9 6.8
2014-Sep-30 01:00N 70°36' E 025°54'6 6.0 340 / 121015.2 5.5 0.4 7.0
2014-Sep-30 00:00N 70°42' E 025°54'6 6.0 340 / 141014.3 5.5 0.7 7.1
2014-Sep-29 23:00N 70°48' E 025°54'6 3.0 340 / 191013.5 5.5 1.0 7.6
2014-Sep-29 21:00N 70°54' E 025°54'6 6.3 340 / 101011.1 4.8 0.5 7.5
2014-Sep-29 20:00N 70°48' E 026°00'8 4.2 020 / 161009.8 5.0 1.9 7.6
2014-Sep-29 18:00N 70°54' E 026°18'2 2.0 040 / 171007.5 5.4 2.7 7.5
2014-Sep-29 17:00N 70°54' E 026°24'19 9.5 060 / 81006.1 6.3 2.8 7.7
2014-Sep-29 15:00N 71°12' E 026°42'8 4.2 090 / 171004.2 5.6 2.9 7.3
2014-Sep-29 13:00N 71°06' E 026°24'6 6.0 080 / 211001.6 6.0 3.5 7.8
2014-Sep-29 12:00N 71°00' E 026°24'4 3.9 120 / 121000.2 6.8 2.1 7.8
2014-Sep-29 11:00N 71°00' E 026°12'1212.2 100 / 8999.3 6.8 2.3 7.8
2014-Sep-29 10:00N 71°12' E 026°06'2 1.9 100 / 10998.4 7.6 2.3 7.6
2014-Sep-29 09:00N 71°12' E 026°12'4 3.9 130 / 10997.4 7.1 3.0 7.6
2014-Sep-29 08:00N 71°12' E 026°00'6 6.3 110 / 10996.5 6.3 2.2 7.7
2014-Sep-29 07:00N 71°18' E 025°54'2 1.9 110 / 16996.1 6.1 2.5 7.7
2014-Sep-29 06:00N 71°18' E 026°00'2 1.9 110 / 17995.8 5.9 2.1 7.8
2014-Sep-29 05:00N 71°18' E 025°54'2 1.0 110 / 19995.5 5.4 2.4 7.7
2014-Sep-29 03:00N 71°18' E 026°00'4 3.8 110 / 17995.5 5.1 1.4 7.7
2014-Sep-29 02:00N 71°18' E 026°12'7 7.1 120 / 19995.6 5.1 1.3 7.6
2014-Sep-29 01:00N 71°12' E 026°24'6 6.3 120 / 17995.9 5.0 1.2 7.2
2014-Sep-29 00:00N 71°06' E 026°30'0 0.0 120 / 16995.8 5.3 1.2 7.6
2014-Sep-28 23:00N 71°06' E 026°30'7 7.2 120 / 17996.3 5.5 0.6 7.7
2014-Sep-28 22:00N 71°00' E 026°42'6 6.3 120 / 14996.4 5.5 1.3 7.8
2014-Sep-28 21:00N 70°54' E 026°48'0 0.0 130 / 12996.5 5.2 1.2 7.7
2014-Sep-28 20:00N 70°54' E 026°48'7 7.2 130 / 14996.6 5.3 1.2 7.8
2014-Sep-28 19:00N 70°48' E 027°00'1212.2 140 / 10996.9 5.1 0.6 7.8
2014-Sep-28 18:00N 70°36' E 026°54'6 6.0 140 / 12997.0 5.1 1.3 7.7
2014-Sep-28 17:00N 70°42' E 026°54'7 7.2 140 / 8997.3 5.2 1.3 7.6
2014-Sep-28 16:00N 70°36' E 026°42'6 6.3 110 / 6997.5 5.5 0.5 7.8
2014-Sep-28 15:00N 70°30' E 026°36'6 3.0 070 / 4997.4 6.0 0.7 7.6
2014-Sep-28 13:00N 70°24' E 026°36'25 6.3 290 / 4997.5 6.1-0.2 7.3
2014-Sep-28 09:00N 70°48' E 027°00'2 2.0 320 / 16995.8 5.8-0.4 7.6
2014-Sep-28 08:00N 70°48' E 027°06'0 0.0 350 / 14995.1 5.5 0.4 7.6
2014-Sep-28 06:00N 70°48' E 027°06'6 6.3 330 / 12993.7 4.9 1.5 7.9
2014-Sep-28 05:00N 70°54' E 027°00'18 8.8 330 / 17993.0 5.0 0.8 7.7
2014-Sep-28 03:00N 70°54' E 026°06'1211.8 320 / 12992.1 5.0 0.9 7.8
2014-Sep-28 02:00N 70°54' E 025°30'2010.2 320 / 14991.5 5.4 0.7 7.4
2014-Sep-28 00:00N 71°00' E 024°30'8 8.4 340 / 14990.5 6.1 1.0 7.7
2014-Sep-27 23:00N 70°54' E 024°12'10 9.9 030 / 8989.6 6.3 2.3 7.6
2014-Sep-27 22:00N 70°48' E 023°48'8 8.4 030 / 12988.9 6.3 3.2 7.6
2014-Sep-27 21:00N 70°42' E 023°30'5 8.3 030 / 19987.6 7.1 4.4 7.8
2014-Sep-27 20:24N 70°38' E 023°20'921.3
2014-Sep-27 20:00N 70°30' E 023°12'1211.7 350 / 10986.5 7.3 4.8 7.6
2014-Sep-27 19:00N 70°24' E 022°42'8 8.1 300 / 6985.5 7.6 3.2 7.8
2014-Sep-27 18:00N 70°24' E 022°18'1010.1 300 / 4984.0 7.5 3.1 7.8
2014-Sep-27 17:00N 70°24' E 021°48'4411.1 340 / 2982.6 8.1 3.1 7.8
2014-Sep-27 13:00N 69°54' E 020°12'9 8.6 210 / 14976.8 7.6 4.3 7.3
2014-Sep-27 12:00N 69°48' E 019°54'2 2.1 210 / 14975.5 7.3 4.0 7.7
2014-Sep-27 11:00N 69°48' E 019°48'8 8.3 250 / 10974.5 9.7 5.1 7.3
2014-Sep-27 10:00N 69°48' E 019°24'7 8.6 210 / 10974.0 8.1 2.4 7.3
2014-Sep-27 09:10N 69°45' E 019°05'420.9
2014-Sep-27 09:00N 69°42' E 019°00'3 6.1 200 / 14972.5 8.5 2.7 7.3
2014-Sep-27 08:34N 69°39' E 018°59'4 6.8
2014-Sep-27 08:00N 69°36' E 018°54'3 6.7 200 / 6971.1 10.2 0.9 7.3
2014-Sep-27 07:30N 69°39' E 018°58'3 6.4
2014-Sep-27 07:00N 69°36' E 018°54'3 7.5 180 / 12970.5 11.4-1.1 7.3
2014-Sep-27 06:33N 69°39' E 018°58'3 5.8
2014-Sep-27 06:00N 69°36' E 018°54'3 6.7 180 / 16970.6 11.1-1.3 7.2
2014-Sep-27 05:30N 69°39' E 018°58'3 6.4
2014-Sep-27 05:00N 69°36' E 018°54'3 7.4 200 / 12971.1 11.4-1.3 7.3
2014-Sep-27 04:33N 69°39' E 018°58'3 5.8
2014-Sep-27 04:00N 69°36' E 018°54'3 7.4 180 / 10971.1 10.1 0.5 7.2
2014-Sep-27 03:33N 69°39' E 018°58'3 5.8
2014-Sep-27 03:00N 69°36' E 018°54'3 7.4 200 / 4972.0 10.6 0.6 7.3
2014-Sep-27 02:33N 69°39' E 018°58'3 5.8
2014-Sep-27 02:00N 69°36' E 018°54'3 6.7 200 / 12972.5 9.9 1.0 7.1
2014-Sep-27 01:30N 69°39' E 018°58'0 0.0
2014-Sep-27 00:33N 69°39' E 018°58'3 5.8
2014-Sep-27 00:00N 69°36' E 018°54'3 7.4 200 / 12972.9 9.6 1.5 7.1
2014-Sep-26 23:33N 69°39' E 018°58'3 5.8
2014-Sep-26 23:00N 69°36' E 018°54'3 7.4 220 / 10973.5 9.6 1.6 7.3
2014-Sep-26 22:33N 69°39' E 018°58'3 5.8
2014-Sep-26 22:00N 69°36' E 018°54'3 7.4 220 / 8974.3 9.3 2.4 7.3
2014-Sep-26 21:33N 69°39' E 018°58'3 5.8
2014-Sep-26 21:00N 69°36' E 018°54'3 7.4 220 / 10975.0 9.6 2.5 7.4
2014-Sep-26 20:33N 69°39' E 018°58'3 5.9
2014-Sep-26 20:00N 69°36' E 018°54'3 7.4 200 / 10975.6 10.0 2.4 7.3
2014-Sep-26 19:33N 69°39' E 018°58'3 5.9
2014-Sep-26 19:00N 69°36' E 018°54'3 7.4 210 / 14976.5 11.0 2.5 7.6
2014-Sep-26 18:33N 69°39' E 018°58'3 5.9
2014-Sep-26 18:00N 69°36' E 018°54'3 7.4 210 / 10977.0 10.7 3.1 7.6
2014-Sep-26 17:33N 69°39' E 018°58'3 5.9
2014-Sep-26 17:00N 69°36' E 018°54'3 6.6 220 / 10977.6 10.5 3.9 7.5
2014-Sep-26 16:30N 69°39' E 018°58'4 3.7
2014-Sep-26 15:30N 69°42' E 019°04'612.0
2014-Sep-26 15:00N 69°36' E 019°00'0 0.0 360 / 6978.1 9.1 4.6 7.5
2014-Sep-26 14:00N 69°36' E 019°00'4 8.3 170 / 8977.3 8.1 4.3 7.3
2014-Sep-26 13:33N 69°40' E 018°60'10 6.3
2014-Sep-26 12:00N 69°30' E 018°54'0 0.0 190 / 19978.3 7.0 3.6 7.0
2014-Sep-26 11:00N 69°30' E 018°54'0 0.0 190 / 23979.3 6.8 2.7 7.1
2014-Sep-26 10:00N 69°30' E 018°54'716.1 210 / 17981.1 6.3 1.7 7.0
2014-Sep-26 09:33N 69°37' E 018°55'1 1.9
2014-Sep-26 09:00N 69°36' E 018°54'3 6.9 230 / 8982.5 6.6 0.7 7.4
2014-Sep-26 08:31N 69°39' E 018°58'3 6.2
2014-Sep-26 08:00N 69°36' E 018°54'3 6.9 070 / 4984.3 6.8-0.5 7.4
2014-Sep-26 07:31N 69°39' E 018°58'3 6.2
2014-Sep-26 07:00N 69°36' E 018°54'3 6.9 230 / 4985.9 6.7-1.4 7.4
2014-Sep-26 06:31N 69°39' E 018°58'3 6.2
2014-Sep-26 06:00N 69°36' E 018°54'3 6.9 220 / 6987.3 6.1-0.2 7.6
2014-Sep-26 05:31N 69°39' E 018°58'0 0.0
2014-Sep-26 04:28N 69°39' E 018°58'3 6.9
2014-Sep-26 04:00N 69°36' E 018°54'3 6.8 220 / 14990.5 5.6 0.3 7.5
2014-Sep-26 03:31N 69°39' E 018°58'3 6.2
2014-Sep-26 03:00N 69°36' E 018°54'3 5.2 210 / 8991.0 5.6-0.8 7.5
2014-Sep-26 02:22N 69°39' E 018°58'3 8.8
2014-Sep-26 02:00N 69°36' E 018°54'3 6.8 200 / 14877.9 6.1 0.5 7.4
2014-Sep-26 01:31N 69°39' E 018°58'3 6.3
2014-Sep-26 01:00N 69°36' E 018°54'3 6.8 220 / 14993.4 5.5 1.4 7.4
2014-Sep-26 00:31N 69°39' E 018°58'3 6.3
2014-Sep-26 00:00N 69°36' E 018°54'3 6.8 220 / 10994.0 0.7-3.4 7.3
2014-Sep-25 23:31N 69°39' E 018°58'3 6.3
2014-Sep-25 23:00N 69°36' E 018°54'3 6.2 220 / 10994.4 5.1 1.6 7.3
2014-Sep-25 22:28N 69°39' E 018°58'0 0.0
2014-Sep-25 21:31N 69°39' E 018°58'3 6.3
2014-Sep-25 21:00N 69°36' E 018°54'3 6.8 220 / 12993.1 5.4 2.1 7.3
2014-Sep-25 20:31N 69°39' E 018°58'3 6.3
2014-Sep-25 20:00N 69°36' E 018°54'3 6.2 220 / 16993.8 5.3 2.1 7.3
2014-Sep-25 19:28N 69°39' E 018°58'0 0.0
2014-Sep-25 18:31N 69°39' E 018°58'3 6.3
2014-Sep-25 18:00N 69°36' E 018°54'3 6.8 230 / 6992.9 6.0 2.2 7.5
2014-Sep-25 17:31N 69°39' E 018°58'0 0.0
2014-Sep-25 16:31N 69°39' E 018°58'3 6.3
2014-Sep-25 16:00N 69°36' E 018°54'3 6.1 230 / 6991.3 6.5 3.1 7.5
2014-Sep-25 15:28N 69°39' E 018°58'3 7.0
2014-Sep-25 15:00N 69°36' E 018°54'3 6.8 230 / 8990.5 6.6 3.1 7.6
2014-Sep-25 14:31N 69°39' E 018°58'3 6.3
2014-Sep-25 14:00N 69°36' E 018°54'510.8 280 / 6989.6 6.8 3.3 7.3
2014-Sep-25 13:33N 69°40' E 019°01'3 2.2
2014-Sep-25 12:05N 69°43' E 019°02'215.6
2014-Sep-25 12:00N 69°42' E 019°00'2 3.3 290 / 16987.5 7.8 4.8 7.3
2014-Sep-25 11:32N 69°43' E 019°02'2 2.8
2014-Sep-25 11:00N 69°42' E 019°00'2 3.3 300 / 17987.0 7.6 4.7 7.3
2014-Sep-25 10:32N 69°43' E 019°02'2 2.8
2014-Sep-25 10:00N 69°42' E 019°00'2 3.3 250 / 10987.0 7.3 4.0 7.3
2014-Sep-25 09:32N 69°43' E 019°01'2 2.8
2014-Sep-25 09:00N 69°42' E 019°00'1 3.3 230 / 14987.0 5.8 3.4 7.3
2014-Sep-25 08:32N 69°43' E 019°01'1 2.7
2014-Sep-25 08:00N 69°42' E 019°00'1 2.9 240 / 16987.3 5.5 3.1 7.3
2014-Sep-25 07:33N 69°43' E 019°02'1 2.3
2014-Sep-25 07:00N 69°42' E 019°00'2 3.5 210 / 12987.8 6.2 3.3 7.2
2014-Sep-25 06:33N 69°40' E 019°01'2 1.8
2014-Sep-25 05:33N 69°39' E 018°58'0 0.0
2014-Sep-25 04:24N 69°39' E 018°58'0 0.0
2014-Sep-25 03:33N 69°39' E 018°58'0 0.0
2014-Sep-25 02:33N 69°39' E 018°58'0 0.0
2014-Sep-25 01:33N 69°39' E 018°58'0 0.0
2014-Sep-25 00:33N 69°39' E 018°58'0 0.0
2014-Sep-24 23:30N 69°39' E 018°58'0 0.0
2014-Sep-24 22:30N 69°39' E 018°58'3 6.4
2014-Sep-24 22:00N 69°36' E 018°54'3 6.6 100 / 2997.0 3.6 0.8 7.2
2014-Sep-24 21:30N 69°39' E 018°58'0 0.0
2014-Sep-24 20:27N 69°39' E 018°58'3 7.2
2014-Sep-24 20:00N 69°36' E 018°54'3 6.6 100 / 41000.0 4.0-16.3 7.3
2014-Sep-24 19:30N 69°39' E 018°58'0 0.0
2014-Sep-24 18:27N 69°39' E 018°58'0 0.0
2014-Sep-24 17:33N 69°39' E 018°58'3 5.9
2014-Sep-24 17:00N 69°36' E 018°54'3 7.3 040 / 161004.4 4.5-1.0 7.3
2014-Sep-24 16:33N 69°39' E 018°58'0 0.0
2014-Sep-24 15:33N 69°39' E 018°58'0 0.0
2014-Sep-24 14:33N 69°39' E 018°58'3 5.9
2014-Sep-24 14:00N 69°36' E 018°54'3 7.3 060 / 121007.2 5.1-1.5 7.1
2014-Sep-24 13:33N 69°39' E 018°58'3 5.9
2014-Sep-24 13:00N 69°36' E 018°54'3 7.3 060 / 161008.2 5.2-1.9 7.1
2014-Sep-24 12:33N 69°39' E 018°58'0 0.0
2014-Sep-24 11:33N 69°39' E 018°58'0 0.0
2014-Sep-24 10:33N 69°39' E 018°58'3 5.9
2014-Sep-24 10:00N 69°36' E 018°54'3 7.3 060 / 161011.1 5.0-2.1 7.2
2014-Sep-24 09:33N 69°39' E 018°58'3 5.9
2014-Sep-24 09:00N 69°36' E 018°54'3 7.3 060 / 141012.1 4.7-2.4 7.2
2014-Sep-24 08:33N 69°39' E 018°58'3 5.9
2014-Sep-24 08:00N 69°36' E 018°54'3 6.5 080 / 141013.1 4.5-3.1 7.1
2014-Sep-24 07:30N 69°39' E 018°58'3 6.5
2014-Sep-24 07:00N 69°36' E 018°54'3 7.3 120 / 21014.0 3.4-3.9 7.1
2014-Sep-24 06:33N 69°39' E 018°58'3 5.9
2014-Sep-24 06:00N 69°36' E 018°54'3 7.3 270 / 21015.1 2.8-4.7 7.1
2014-Sep-24 05:32N 69°39' E 018°58'3 5.9
2014-Sep-24 05:00N 69°36' E 018°54'3 7.2 120 / 41015.6 2.3-4.8 7.5
2014-Sep-24 04:32N 69°39' E 018°58'0 0.0
2014-Sep-24 03:26N 69°39' E 018°58'3 7.3
2014-Sep-24 03:00N 69°36' E 018°54'3 6.5 140 / 61016.1 3.8-3.3 7.3
2014-Sep-24 02:29N 69°39' E 018°58'0 0.0
2014-Sep-24 01:32N 69°39' E 018°58'3 6.0
2014-Sep-24 01:00N 69°36' E 018°54'3 7.2 220 / 21016.6 2.1-2.4 7.5
2014-Sep-24 00:32N 69°39' E 018°58'3 6.0
2014-Sep-24 00:00N 69°36' E 018°54'3 5.9 060 / 21016.8 2.8-2.5 7.3
2014-Sep-23 23:26N 69°39' E 018°58'3 7.3
2014-Sep-23 23:00N 69°36' E 018°54'3 7.2 060 / 41017.4 1.9-3.5 7.1
2014-Sep-23 22:32N 69°39' E 018°58'3 6.0
2014-Sep-23 22:00N 69°36' E 018°54'3 7.2 220 / 21017.8 2.3-3.0 7.4
2014-Sep-23 21:32N 69°39' E 018°58'3 6.0
2014-Sep-23 21:00N 69°36' E 018°54'3 7.2 080 / 21018.2 3.4-4.3 7.4
2014-Sep-23 20:32N 69°39' E 018°58'3 6.0
2014-Sep-23 20:00N 69°36' E 018°54'3 7.2 070 / 41018.5 4.0-4.0 7.3
2014-Sep-23 19:32N 69°39' E 018°58'0 0.0
2014-Sep-23 18:29N 69°39' E 018°58'3 6.6
2014-Sep-23 18:00N 69°36' E 018°54'3 6.5 120 / 81018.2 4.7-5.2 7.3
2014-Sep-23 17:29N 69°39' E 018°58'3 6.6
2014-Sep-23 17:00N 69°36' E 018°54'3 7.2 110 / 61019.0 4.6-4.5 7.6
2014-Sep-23 16:32N 69°39' E 018°58'3 6.0
2014-Sep-23 16:00N 69°36' E 018°54'3 5.4 120 / 61019.2 4.3-4.7 7.6
2014-Sep-23 15:23N 69°39' E 018°58'3 8.3
2014-Sep-23 15:00N 69°36' E 018°54'3 6.4 160 / 41019.2 5.0-4.6 7.7
2014-Sep-23 14:29N 69°39' E 018°58'3 6.6
2014-Sep-23 14:00N 69°36' E 018°54'3 7.1 200 / 41019.3 5.8-1.0 7.5
2014-Sep-23 13:32N 69°39' E 018°58'3 6.0
2014-Sep-23 13:00N 69°36' E 018°54'3 7.1 210 / 41019.5 5.1-14.9 7.6
2014-Sep-23 12:32N 69°39' E 018°58'3 6.0
2014-Sep-23 12:00N 69°36' E 018°54'3 7.1 170 / 21019.7 6.3-1.3 7.5
2014-Sep-23 11:32N 69°39' E 018°58'0 0.0
2014-Sep-23 10:32N 69°39' E 018°58'3 6.0
2014-Sep-23 10:00N 69°36' E 018°54'3 6.4 190 / 21020.3 4.0-0.6 7.5
2014-Sep-23 09:29N 69°39' E 018°58'3 6.6
2014-Sep-23 09:00N 69°36' E 018°54'3 7.1 210 / 41020.6 3.7-0.7 7.5
2014-Sep-23 08:32N 69°39' E 018°58'3 6.0
2014-Sep-23 08:00N 69°36' E 018°54'3 6.4 110 / 21020.8 3.5-0.6 7.5
2014-Sep-23 07:29N 69°39' E 018°58'0 0.0
2014-Sep-23 06:32N 69°39' E 018°58'3 6.1
2014-Sep-23 06:00N 69°36' E 018°54'3 7.1 230 / 21020.8 2.7-0.5 7.6
2014-Sep-23 05:32N 69°39' E 018°58'3 6.1
2014-Sep-23 05:00N 69°36' E 018°54'3 5.8 210 1021.0 2.5-1.0 7.7
2014-Sep-23 04:26N 69°39' E 018°58'0 0.0
2014-Sep-23 03:32N 69°39' E 018°58'3 6.1
2014-Sep-23 03:00N 69°36' E 018°54'3 7.1 050 / 21021.0 1.3-3.2 7.7
2014-Sep-23 02:32N 69°39' E 018°58'3 6.1
2014-Sep-23 02:00N 69°36' E 018°54'3 7.1 100 / 21021.2 1.5-3.2 7.6
2014-Sep-23 01:32N 69°39' E 018°58'3 6.1
2014-Sep-23 01:00N 69°36' E 018°54'3 7.1 120 / 41021.2 2.6-2.7 7.6
2014-Sep-23 00:32N 69°39' E 018°58'3 6.1
2014-Sep-23 00:00N 69°36' E 018°54'3 6.4 240 1021.3 2.7-1.4 7.6
2014-Sep-22 23:29N 69°39' E 018°58'0 0.0
2014-Sep-22 22:32N 69°39' E 018°58'3 6.1
2014-Sep-22 22:00N 69°36' E 018°54'3 7.0 160 / 21021.7 3.1-0.8 7.4
2014-Sep-22 21:32N 69°39' E 018°58'3 6.1
2014-Sep-22 21:00N 69°36' E 018°54'3 7.0 210 / 21021.8 3.1-0.5 7.6
2014-Sep-22 20:32N 69°39' E 018°58'3 6.1
2014-Sep-22 20:00N 69°36' E 018°54'3 6.3 100 / 21022.0 3.1-0.5 7.6
2014-Sep-22 19:29N 69°39' E 018°58'3 6.7
2014-Sep-22 19:00N 69°36' E 018°54'3 7.0 080 / 21021.8 2.3-1.1 7.6
2014-Sep-22 18:32N 69°39' E 018°58'0 0.0
2014-Sep-22 17:29N 69°39' E 018°58'3 6.7
2014-Sep-22 17:00N 69°36' E 018°54'3 6.3 110 1021.8 3.7-1.2 7.8
2014-Sep-22 16:29N 69°39' E 018°58'3 6.8
2014-Sep-22 16:00N 69°36' E 018°54'3 7.0 100 / 21021.8 4.0-2.2 7.5
2014-Sep-22 15:32N 69°39' E 018°58'3 6.1
2014-Sep-22 15:00N 69°36' E 018°54'3 7.0 110 / 41021.7 3.7-2.1 7.6
2014-Sep-22 14:31N 69°39' E 018°58'1 0.5
2014-Sep-22 13:34N 69°39' E 018°58'4 6.7
2014-Sep-22 13:00N 69°36' E 018°54'4 8.4 100 / 41021.3 3.7-2.4 7.8
2014-Sep-22 12:33N 69°39' E 018°58'4 6.9
2014-Sep-22 12:00N 69°36' E 018°54'4 7.6 100 / 21021.2 4.9-2.2 7.8
2014-Sep-22 11:30N 69°39' E 018°58'4 7.6
2014-Sep-22 11:00N 69°36' E 018°54'4 8.4 080 / 21020.8 4.1-1.6 7.6
2014-Sep-22 10:33N 69°39' E 018°58'0 0.0
2014-Sep-22 09:29N 69°39' E 018°58'4 7.6
2014-Sep-22 09:00N 69°36' E 018°54'4 7.6 150 / 41020.1 3.1-1.9 7.6
2014-Sep-22 08:29N 69°39' E 018°58'0 0.0
2014-Sep-22 07:32N 69°39' E 018°58'4 6.9
2014-Sep-22 07:00N 69°36' E 018°54'510.5 190 / 41019.2 1.9-0.6 7.3
2014-Sep-22 06:31N 69°41' E 018°59'0 0.0
2014-Sep-22 05:31N 69°41' E 018°59'5 9.3
2014-Sep-22 05:00N 69°36' E 018°54'510.5 270 / 21018.1 1.0-0.2 7.5
2014-Sep-22 04:31N 69°41' E 018°59'0 0.0
2014-Sep-22 03:28N 69°41' E 018°59'0 0.0
2014-Sep-22 02:31N 69°41' E 018°59'0 0.0
2014-Sep-22 01:31N 69°41' E 018°59'5 9.4
2014-Sep-22 01:00N 69°36' E 018°54'510.4 220 / 81017.0 0.6-0.8 7.5
2014-Sep-22 00:31N 69°41' E 018°59'5 9.4
2014-Sep-22 00:00N 69°36' E 018°54'5 8.6 250 / 61017.0 0.6-1.2 7.5
2014-Sep-21 23:25N 69°41' E 018°59'511.6
2014-Sep-21 23:00N 69°36' E 018°54'510.4 250 / 61016.6 1.5-0.7 7.3
2014-Sep-21 22:31N 69°41' E 018°59'5 9.4
2014-Sep-21 22:00N 69°36' E 018°54'5 9.4 270 / 41016.6 1.5-0.8 7.5
2014-Sep-21 21:28N 69°41' E 018°59'510.4
2014-Sep-21 21:00N 69°36' E 018°54'510.4 230 / 41016.6 1.3-1.0 7.5
2014-Sep-21 20:31N 69°41' E 018°59'5 9.4
2014-Sep-21 20:00N 69°36' E 018°54'   180 / 21016.2 1.6-0.8 7.3
Track history (hours):
 
Tides and Currents Weather Stations Pressure Air Temp Water Temp Dewpoint Dewpoint Depression Visibility Wind Speed Wind Dir Waves Ship Positions

Oceanographic research ship Hakon Mosby (Norway)

Detailed information on ship capabilities available from University of Delaware's Ocean Information Center and ARCUS's ALIAS (Arctic Logistics Information and Support) project.

Last reported at 2014-Oct-01 20:00 UTC. Time now 2014-Oct-01 22:30 UTC.
Position N 71°00' E 024°24'.

Type: Dredging. MMSI: 258244000.

Wind from 150 at 12 knots

Barometer 1015.2 mb
Air temperature 8.7 ° C
Dewpoint 5.3 ° C
Water temperature 7.6 ° C

Date/timePositionNaut miles runAvg speedWind from/ knotsBaromVisibWave heightAir tempDewpointWater temp
2014-Oct-01 20:00N 71°00' E 024°24'4 3.9 150 / 121015.2 8.7 5.3 7.6
2014-Oct-01 19:00N 71°00' E 024°36'11 5.7 120 / 121015.8 8.0 3.2 7.5
2014-Oct-01 17:00N 70°54' E 025°06'7 3.6 160 / 101017.7 7.6 1.8 7.4
2014-Oct-01 15:00N 70°48' E 025°18'1313.4 180 / 101018.5 8.0-0.1 7.2
2014-Oct-01 14:00N 71°00' E 025°00'10 4.9 180 / 121018.6 7.7 0.2 7.6
2014-Oct-01 12:00N 71°06' E 025°24'6 5.8 190 / 101019.2 7.6-2.1 7.6
2014-Oct-01 11:00N 71°06' E 025°06'14 7.2 150 / 101019.5 7.3-1.3 7.6
2014-Oct-01 09:00N 70°54' E 025°30'16 7.8 190 / 41020.0 5.8-1.7 7.3
2014-Oct-01 07:00N 70°42' E 026°00'12 5.8 210 / 161021.3 4.8-0.8 7.6
2014-Oct-01 05:00N 70°36' E 025°30'7 7.2 220 / 121022.1 4.5-1.7 6.6
2014-Oct-01 04:00N 70°30' E 025°18'2 2.0 240 / 81022.1 4.6-1.8 6.5
2014-Oct-01 03:00N 70°30' E 025°24'1313.4 230 / 141022.7 5.0-1.6 6.8
2014-Oct-01 02:00N 70°42' E 025°42'8 8.4 210 / 101023.3 5.5-0.6 6.9
2014-Oct-01 01:00N 70°48' E 026°00'4 3.9 230 / 171023.3 6.0-1.2 7.4
2014-Oct-01 00:00N 70°48' E 026°12'0 0.0 230 / 141023.8 5.6 0.8 7.1
2014-Sep-30 23:00N 70°48' E 026°12'4 3.9 240 / 161024.2 6.3-0.4 7.0
2014-Sep-30 22:00N 70°48' E 026°00'8 8.4 230 / 171024.5 6.0 0.4 7.5
2014-Sep-30 21:00N 70°42' E 025°42'13 6.3 240 / 141024.0 5.3 0.5 7.2
2014-Sep-30 19:00N 70°54' E 025°54'0 0.0 290 / 161023.3 6.3 0.8 7.6
2014-Sep-30 18:00N 70°54' E 025°54'0 0.0 280 / 161023.8 5.4 0.7 7.6
2014-Sep-30 16:00N 70°54' E 025°54'0 0.0 300 / 101023.8 6.1 0.2 7.7
2014-Sep-30 14:00N 70°54' E 025°54'0 0.0 310 / 121023.8 5.3 0.8 7.6
2014-Sep-30 13:00N 70°54' E 025°54'1212.0 350 / 141023.2 6.1-0.2 7.4
2014-Sep-30 12:00N 70°42' E 025°54'1010.0 330 / 101023.3 3.9 0.1 7.1
2014-Sep-30 11:00N 70°36' E 025°30'13 6.3 340 / 161022.6 5.8-1.4 6.7
2014-Sep-30 09:00N 70°24' E 025°18'0 0.0 330 / 81021.5 5.3-0.3 6.1
2014-Sep-30 08:00N 70°24' E 025°18'0 0.0 320 / 141020.7 5.0-0.4 6.3
2014-Sep-30 07:00N 70°24' E 025°18'6 2.0 290 / 121019.7 4.4-0.2 6.1
2014-Sep-30 04:00N 70°24' E 025°36'13 6.3 320 / 121017.3 4.9-0.2 7.0
2014-Sep-30 02:00N 70°36' E 025°48'2 2.0 320 / 81016.0 5.0 0.9 6.8
2014-Sep-30 01:00N 70°36' E 025°54'6 6.0 340 / 121015.2 5.5 0.4 7.0
2014-Sep-30 00:00N 70°42' E 025°54'6 6.0 340 / 141014.3 5.5 0.7 7.1
2014-Sep-29 23:00N 70°48' E 025°54'6 3.0 340 / 191013.5 5.5 1.0 7.6
2014-Sep-29 21:00N 70°54' E 025°54'6 6.3 340 / 101011.1 4.8 0.5 7.5
2014-Sep-29 20:00N 70°48' E 026°00'8 4.2 020 / 161009.8 5.0 1.9 7.6
2014-Sep-29 18:00N 70°54' E 026°18'2 2.0 040 / 171007.5 5.4 2.7 7.5
2014-Sep-29 17:00N 70°54' E 026°24'19 9.5 060 / 81006.1 6.3 2.8 7.7
2014-Sep-29 15:00N 71°12' E 026°42'8 4.2 090 / 171004.2 5.6 2.9 7.3
2014-Sep-29 13:00N 71°06' E 026°24'6 6.0 080 / 211001.6 6.0 3.5 7.8
2014-Sep-29 12:00N 71°00' E 026°24'4 3.9 120 / 121000.2 6.8 2.1 7.8
2014-Sep-29 11:00N 71°00' E 026°12'1212.2 100 / 8999.3 6.8 2.3 7.8
2014-Sep-29 10:00N 71°12' E 026°06'2 1.9 100 / 10998.4 7.6 2.3 7.6
2014-Sep-29 09:00N 71°12' E 026°12'4 3.9 130 / 10997.4 7.1 3.0 7.6
2014-Sep-29 08:00N 71°12' E 026°00'6 6.3 110 / 10996.5 6.3 2.2 7.7
2014-Sep-29 07:00N 71°18' E 025°54'2 1.9 110 / 16996.1 6.1 2.5 7.7
2014-Sep-29 06:00N 71°18' E 026°00'2 1.9 110 / 17995.8 5.9 2.1 7.8
2014-Sep-29 05:00N 71°18' E 025°54'2 1.0 110 / 19995.5 5.4 2.4 7.7
2014-Sep-29 03:00N 71°18' E 026°00'4 3.8 110 / 17995.5 5.1 1.4 7.7
2014-Sep-29 02:00N 71°18' E 026°12'7 7.1 120 / 19995.6 5.1 1.3 7.6
2014-Sep-29 01:00N 71°12' E 026°24'6 6.3 120 / 17995.9 5.0 1.2 7.2
2014-Sep-29 00:00N 71°06' E 026°30'0 0.0 120 / 16995.8 5.3 1.2 7.6
2014-Sep-28 23:00N 71°06' E 026°30'7 7.2 120 / 17996.3 5.5 0.6 7.7
2014-Sep-28 22:00N 71°00' E 026°42'6 6.3 120 / 14996.4 5.5 1.3 7.8
2014-Sep-28 21:00N 70°54' E 026°48'0 0.0 130 / 12996.5 5.2 1.2 7.7
2014-Sep-28 20:00N 70°54' E 026°48'7 7.2 130 / 14996.6 5.3 1.2 7.8
2014-Sep-28 19:00N 70°48' E 027°00'1212.2 140 / 10996.9 5.1 0.6 7.8
2014-Sep-28 18:00N 70°36' E 026°54'6 6.0 140 / 12997.0 5.1 1.3 7.7
2014-Sep-28 17:00N 70°42' E 026°54'7 7.2 140 / 8997.3 5.2 1.3 7.6
2014-Sep-28 16:00N 70°36' E 026°42'6 6.3 110 / 6997.5 5.5 0.5 7.8
2014-Sep-28 15:00N 70°30' E 026°36'6 3.0 070 / 4997.4 6.0 0.7 7.6
2014-Sep-28 13:00N 70°24' E 026°36'25 6.3 290 / 4997.5 6.1-0.2 7.3
2014-Sep-28 09:00N 70°48' E 027°00'2 2.0 320 / 16995.8 5.8-0.4 7.6
2014-Sep-28 08:00N 70°48' E 027°06'0 0.0 350 / 14995.1 5.5 0.4 7.6
2014-Sep-28 06:00N 70°48' E 027°06'6 6.3 330 / 12993.7 4.9 1.5 7.9
2014-Sep-28 05:00N 70°54' E 027°00'18 8.8 330 / 17993.0 5.0 0.8 7.7
2014-Sep-28 03:00N 70°54' E 026°06'1211.8 320 / 12992.1 5.0 0.9 7.8
2014-Sep-28 02:00N 70°54' E 025°30'2010.2 320 / 14991.5 5.4 0.7 7.4
2014-Sep-28 00:00N 71°00' E 024°30'8 8.4 340 / 14990.5 6.1 1.0 7.7
2014-Sep-27 23:00N 70°54' E 024°12'10 9.9 030 / 8989.6 6.3 2.3 7.6
2014-Sep-27 22:00N 70°48' E 023°48'8 8.4 030 / 12988.9 6.3 3.2 7.6
2014-Sep-27 21:00N 70°42' E 023°30'5 8.3 030 / 19987.6 7.1 4.4 7.8
2014-Sep-27 20:24N 70°38' E 023°20'921.3
2014-Sep-27 20:00N 70°30' E 023°12'1211.7 350 / 10986.5 7.3 4.8 7.6
2014-Sep-27 19:00N 70°24' E 022°42'8 8.1 300 / 6985.5 7.6 3.2 7.8
2014-Sep-27 18:00N 70°24' E 022°18'1010.1 300 / 4984.0 7.5 3.1 7.8
2014-Sep-27 17:00N 70°24' E 021°48'4411.1 340 / 2982.6 8.1 3.1 7.8
2014-Sep-27 13:00N 69°54' E 020°12'9 8.6 210 / 14976.8 7.6 4.3 7.3
2014-Sep-27 12:00N 69°48' E 019°54'2 2.1 210 / 14975.5 7.3 4.0 7.7
2014-Sep-27 11:00N 69°48' E 019°48'8 8.3 250 / 10974.5 9.7 5.1 7.3
2014-Sep-27 10:00N 69°48' E 019°24'7 8.6 210 / 10974.0 8.1 2.4 7.3
2014-Sep-27 09:10N 69°45' E 019°05'420.9
2014-Sep-27 09:00N 69°42' E 019°00'3 6.1 200 / 14972.5 8.5 2.7 7.3
2014-Sep-27 08:34N 69°39' E 018°59'4 6.8
2014-Sep-27 08:00N 69°36' E 018°54'3 6.7 200 / 6971.1 10.2 0.9 7.3
2014-Sep-27 07:30N 69°39' E 018°58'3 6.4
2014-Sep-27 07:00N 69°36' E 018°54'3 7.5 180 / 12970.5 11.4-1.1 7.3
2014-Sep-27 06:33N 69°39' E 018°58'3 5.8
2014-Sep-27 06:00N 69°36' E 018°54'3 6.7 180 / 16970.6 11.1-1.3 7.2
2014-Sep-27 05:30N 69°39' E 018°58'3 6.4
2014-Sep-27 05:00N 69°36' E 018°54'3 7.4 200 / 12971.1 11.4-1.3 7.3
2014-Sep-27 04:33N 69°39' E 018°58'3 5.8
2014-Sep-27 04:00N 69°36' E 018°54'3 7.4 180 / 10971.1 10.1 0.5 7.2
2014-Sep-27 03:33N 69°39' E 018°58'3 5.8
2014-Sep-27 03:00N 69°36' E 018°54'3 7.4 200 / 4972.0 10.6 0.6 7.3
2014-Sep-27 02:33N 69°39' E 018°58'3 5.8
2014-Sep-27 02:00N 69°36' E 018°54'3 6.7 200 / 12972.5 9.9 1.0 7.1
2014-Sep-27 01:30N 69°39' E 018°58'0 0.0
2014-Sep-27 00:33N 69°39' E 018°58'3 5.8
2014-Sep-27 00:00N 69°36' E 018°54'3 7.4 200 / 12972.9 9.6 1.5 7.1
2014-Sep-26 23:33N 69°39' E 018°58'3 5.8
2014-Sep-26 23:00N 69°36' E 018°54'3 7.4 220 / 10973.5 9.6 1.6 7.3
2014-Sep-26 22:33N 69°39' E 018°58'3 5.8
2014-Sep-26 22:00N 69°36' E 018°54'3 7.4 220 / 8974.3 9.3 2.4 7.3
2014-Sep-26 21:33N 69°39' E 018°58'3 5.8
2014-Sep-26 21:00N 69°36' E 018°54'3 7.4 220 / 10975.0 9.6 2.5 7.4
2014-Sep-26 20:33N 69°39' E 018°58'3 5.9
2014-Sep-26 20:00N 69°36' E 018°54'3 7.4 200 / 10975.6 10.0 2.4 7.3
2014-Sep-26 19:33N 69°39' E 018°58'3 5.9
2014-Sep-26 19:00N 69°36' E 018°54'3 7.4 210 / 14976.5 11.0 2.5 7.6
2014-Sep-26 18:33N 69°39' E 018°58'3 5.9
2014-Sep-26 18:00N 69°36' E 018°54'3 7.4 210 / 10977.0 10.7 3.1 7.6
2014-Sep-26 17:33N 69°39' E 018°58'3 5.9
2014-Sep-26 17:00N 69°36' E 018°54'3 6.6 220 / 10977.6 10.5 3.9 7.5
2014-Sep-26 16:30N 69°39' E 018°58'4 3.7
2014-Sep-26 15:30N 69°42' E 019°04'612.0
2014-Sep-26 15:00N 69°36' E 019°00'0 0.0 360 / 6978.1 9.1 4.6 7.5
2014-Sep-26 14:00N 69°36' E 019°00'4 8.3 170 / 8977.3 8.1 4.3 7.3
2014-Sep-26 13:33N 69°40' E 018°60'10 6.3
2014-Sep-26 12:00N 69°30' E 018°54'0 0.0 190 / 19978.3 7.0 3.6 7.0
2014-Sep-26 11:00N 69°30' E 018°54'0 0.0 190 / 23979.3 6.8 2.7 7.1
2014-Sep-26 10:00N 69°30' E 018°54'716.1 210 / 17981.1 6.3 1.7 7.0
2014-Sep-26 09:33N 69°37' E 018°55'1 1.9
2014-Sep-26 09:00N 69°36' E 018°54'3 6.9 230 / 8982.5 6.6 0.7 7.4
2014-Sep-26 08:31N 69°39' E 018°58'3 6.2
2014-Sep-26 08:00N 69°36' E 018°54'3 6.9 070 / 4984.3 6.8-0.5 7.4
2014-Sep-26 07:31N 69°39' E 018°58'3 6.2
2014-Sep-26 07:00N 69°36' E 018°54'3 6.9 230 / 4985.9 6.7-1.4 7.4
2014-Sep-26 06:31N 69°39' E 018°58'3 6.2
2014-Sep-26 06:00N 69°36' E 018°54'3 6.9 220 / 6987.3 6.1-0.2 7.6
2014-Sep-26 05:31N 69°39' E 018°58'0 0.0
2014-Sep-26 04:28N 69°39' E 018°58'3 6.9
2014-Sep-26 04:00N 69°36' E 018°54'3 6.8 220 / 14990.5 5.6 0.3 7.5
2014-Sep-26 03:31N 69°39' E 018°58'3 6.2
2014-Sep-26 03:00N 69°36' E 018°54'3 5.2 210 / 8991.0 5.6-0.8 7.5
2014-Sep-26 02:22N 69°39' E 018°58'3 8.8
2014-Sep-26 02:00N 69°36' E 018°54'3 6.8 200 / 14877.9 6.1 0.5 7.4
2014-Sep-26 01:31N 69°39' E 018°58'3 6.3
2014-Sep-26 01:00N 69°36' E 018°54'3 6.8 220 / 14993.4 5.5 1.4 7.4
2014-Sep-26 00:31N 69°39' E 018°58'3 6.3
2014-Sep-26 00:00N 69°36' E 018°54'3 6.8 220 / 10994.0 0.7-3.4 7.3
2014-Sep-25 23:31N 69°39' E 018°58'3 6.3
2014-Sep-25 23:00N 69°36' E 018°54'3 6.2 220 / 10994.4 5.1 1.6 7.3
2014-Sep-25 22:28N 69°39' E 018°58'0 0.0
2014-Sep-25 21:31N 69°39' E 018°58'3 6.3
2014-Sep-25 21:00N 69°36' E 018°54'3 6.8 220 / 12993.1 5.4 2.1 7.3
2014-Sep-25 20:31N 69°39' E 018°58'3 6.3
2014-Sep-25 20:00N 69°36' E 018°54'3 6.2 220 / 16993.8 5.3 2.1 7.3
2014-Sep-25 19:28N 69°39' E 018°58'0 0.0
2014-Sep-25 18:31N 69°39' E 018°58'3 6.3
2014-Sep-25 18:00N 69°36' E 018°54'3 6.8 230 / 6992.9 6.0 2.2 7.5
2014-Sep-25 17:31N 69°39' E 018°58'0 0.0
2014-Sep-25 16:31N 69°39' E 018°58'3 6.3
2014-Sep-25 16:00N 69°36' E 018°54'3 6.1 230 / 6991.3 6.5 3.1 7.5
2014-Sep-25 15:28N 69°39' E 018°58'3 7.0
2014-Sep-25 15:00N 69°36' E 018°54'3 6.8 230 / 8990.5 6.6 3.1 7.6
2014-Sep-25 14:31N 69°39' E 018°58'3 6.3
2014-Sep-25 14:00N 69°36' E 018°54'510.8 280 / 6989.6 6.8 3.3 7.3
2014-Sep-25 13:33N 69°40' E 019°01'3 2.2
2014-Sep-25 12:05N 69°43' E 019°02'215.6
2014-Sep-25 12:00N 69°42' E 019°00'2 3.3 290 / 16987.5 7.8 4.8 7.3
2014-Sep-25 11:32N 69°43' E 019°02'2 2.8
2014-Sep-25 11:00N 69°42' E 019°00'2 3.3 300 / 17987.0 7.6 4.7 7.3
2014-Sep-25 10:32N 69°43' E 019°02'2 2.8
2014-Sep-25 10:00N 69°42' E 019°00'2 3.3 250 / 10987.0 7.3 4.0 7.3
2014-Sep-25 09:32N 69°43' E 019°01'2 2.8
2014-Sep-25 09:00N 69°42' E 019°00'1 3.3 230 / 14987.0 5.8 3.4 7.3
2014-Sep-25 08:32N 69°43' E 019°01'1 2.7
2014-Sep-25 08:00N 69°42' E 019°00'1 2.9 240 / 16987.3 5.5 3.1 7.3
2014-Sep-25 07:33N 69°43' E 019°02'1 2.3
2014-Sep-25 07:00N 69°42' E 019°00'2 3.5 210 / 12987.8 6.2 3.3 7.2
2014-Sep-25 06:33N 69°40' E 019°01'2 1.8
2014-Sep-25 05:33N 69°39' E 018°58'0 0.0
2014-Sep-25 04:24N 69°39' E 018°58'0 0.0
2014-Sep-25 03:33N 69°39' E 018°58'0 0.0
2014-Sep-25 02:33N 69°39' E 018°58'0 0.0
2014-Sep-25 01:33N 69°39' E 018°58'0 0.0
2014-Sep-25 00:33N 69°39' E 018°58'0 0.0
2014-Sep-24 23:30N 69°39' E 018°58'0 0.0
2014-Sep-24 22:30N 69°39' E 018°58'3 6.4
2014-Sep-24 22:00N 69°36' E 018°54'3 6.6 100 / 2997.0 3.6 0.8 7.2
2014-Sep-24 21:30N 69°39' E 018°58'0 0.0
2014-Sep-24 20:27N 69°39' E 018°58'3 7.2
2014-Sep-24 20:00N 69°36' E 018°54'3 6.6 100 / 41000.0 4.0-16.3 7.3
2014-Sep-24 19:30N 69°39' E 018°58'0 0.0
2014-Sep-24 18:27N 69°39' E 018°58'0 0.0
2014-Sep-24 17:33N 69°39' E 018°58'3 5.9
2014-Sep-24 17:00N 69°36' E 018°54'3 7.3 040 / 161004.4 4.5-1.0 7.3
2014-Sep-24 16:33N 69°39' E 018°58'0 0.0
2014-Sep-24 15:33N 69°39' E 018°58'0 0.0
2014-Sep-24 14:33N 69°39' E 018°58'3 5.9
2014-Sep-24 14:00N 69°36' E 018°54'3 7.3 060 / 121007.2 5.1-1.5 7.1
2014-Sep-24 13:33N 69°39' E 018°58'3 5.9
2014-Sep-24 13:00N 69°36' E 018°54'3 7.3 060 / 161008.2 5.2-1.9 7.1
2014-Sep-24 12:33N 69°39' E 018°58'0 0.0
2014-Sep-24 11:33N 69°39' E 018°58'0 0.0
2014-Sep-24 10:33N 69°39' E 018°58'3 5.9
2014-Sep-24 10:00N 69°36' E 018°54'3 7.3 060 / 161011.1 5.0-2.1 7.2
2014-Sep-24 09:33N 69°39' E 018°58'3 5.9
2014-Sep-24 09:00N 69°36' E 018°54'3 7.3 060 / 141012.1 4.7-2.4 7.2
2014-Sep-24 08:33N 69°39' E 018°58'3 5.9
2014-Sep-24 08:00N 69°36' E 018°54'3 6.5 080 / 141013.1 4.5-3.1 7.1
2014-Sep-24 07:30N 69°39' E 018°58'3 6.5
2014-Sep-24 07:00N 69°36' E 018°54'3 7.3 120 / 21014.0 3.4-3.9 7.1
2014-Sep-24 06:33N 69°39' E 018°58'3 5.9
2014-Sep-24 06:00N 69°36' E 018°54'3 7.3 270 / 21015.1 2.8-4.7 7.1
2014-Sep-24 05:32N 69°39' E 018°58'3 5.9
2014-Sep-24 05:00N 69°36' E 018°54'3 7.2 120 / 41015.6 2.3-4.8 7.5
2014-Sep-24 04:32N 69°39' E 018°58'0 0.0
2014-Sep-24 03:26N 69°39' E 018°58'3 7.3
2014-Sep-24 03:00N 69°36' E 018°54'3 6.5 140 / 61016.1 3.8-3.3 7.3
2014-Sep-24 02:29N 69°39' E 018°58'0 0.0
2014-Sep-24 01:32N 69°39' E 018°58'3 6.0
2014-Sep-24 01:00N 69°36' E 018°54'3 7.2 220 / 21016.6 2.1-2.4 7.5
2014-Sep-24 00:32N 69°39' E 018°58'3 6.0
2014-Sep-24 00:00N 69°36' E 018°54'3 5.9 060 / 21016.8 2.8-2.5 7.3
2014-Sep-23 23:26N 69°39' E 018°58'3 7.3
2014-Sep-23 23:00N 69°36' E 018°54'3 7.2 060 / 41017.4 1.9-3.5 7.1
2014-Sep-23 22:32N 69°39' E 018°58'3 6.0
2014-Sep-23 22:00N 69°36' E 018°54'3 7.2 220 / 21017.8 2.3-3.0 7.4
2014-Sep-23 21:32N 69°39' E 018°58'3 6.0
2014-Sep-23 21:00N 69°36' E 018°54'3 7.2 080 / 21018.2 3.4-4.3 7.4
2014-Sep-23 20:32N 69°39' E 018°58'3 6.0
2014-Sep-23 20:00N 69°36' E 018°54'3 7.2 070 / 41018.5 4.0-4.0 7.3
2014-Sep-23 19:32N 69°39' E 018°58'0 0.0
2014-Sep-23 18:29N 69°39' E 018°58'3 6.6
2014-Sep-23 18:00N 69°36' E 018°54'3 6.5 120 / 81018.2 4.7-5.2 7.3
2014-Sep-23 17:29N 69°39' E 018°58'3 6.6
2014-Sep-23 17:00N 69°36' E 018°54'3 7.2 110 / 61019.0 4.6-4.5 7.6
2014-Sep-23 16:32N 69°39' E 018°58'3 6.0
2014-Sep-23 16:00N 69°36' E 018°54'3 5.4 120 / 61019.2 4.3-4.7 7.6
2014-Sep-23 15:23N 69°39' E 018°58'3 8.3
2014-Sep-23 15:00N 69°36' E 018°54'3 6.4 160 / 41019.2 5.0-4.6 7.7
2014-Sep-23 14:29N 69°39' E 018°58'3 6.6
2014-Sep-23 14:00N 69°36' E 018°54'3 7.1 200 / 41019.3 5.8-1.0 7.5
2014-Sep-23 13:32N 69°39' E 018°58'3 6.0
2014-Sep-23 13:00N 69°36' E 018°54'3 7.1 210 / 41019.5 5.1-14.9 7.6
2014-Sep-23 12:32N 69°39' E 018°58'3 6.0
2014-Sep-23 12:00N 69°36' E 018°54'3 7.1 170 / 21019.7 6.3-1.3 7.5
2014-Sep-23 11:32N 69°39' E 018°58'0 0.0
2014-Sep-23 10:32N 69°39' E 018°58'3 6.0
2014-Sep-23 10:00N 69°36' E 018°54'3 6.4 190 / 21020.3 4.0-0.6 7.5
2014-Sep-23 09:29N 69°39' E 018°58'3 6.6
2014-Sep-23 09:00N 69°36' E 018°54'3 7.1 210 / 41020.6 3.7-0.7 7.5
2014-Sep-23 08:32N 69°39' E 018°58'3 6.0
2014-Sep-23 08:00N 69°36' E 018°54'3 6.4 110 / 21020.8 3.5-0.6 7.5
2014-Sep-23 07:29N 69°39' E 018°58'0 0.0
2014-Sep-23 06:32N 69°39' E 018°58'3 6.1
2014-Sep-23 06:00N 69°36' E 018°54'3 7.1 230 / 21020.8 2.7-0.5 7.6
2014-Sep-23 05:32N 69°39' E 018°58'3 6.1
2014-Sep-23 05:00N 69°36' E 018°54'3 5.8 210 1021.0 2.5-1.0 7.7
2014-Sep-23 04:26N 69°39' E 018°58'0 0.0
2014-Sep-23 03:32N 69°39' E 018°58'3 6.1
2014-Sep-23 03:00N 69°36' E 018°54'3 7.1 050 / 21021.0 1.3-3.2 7.7
2014-Sep-23 02:32N 69°39' E 018°58'3 6.1
2014-Sep-23 02:00N 69°36' E 018°54'3 7.1 100 / 21021.2 1.5-3.2 7.6
2014-Sep-23 01:32N 69°39' E 018°58'3 6.1
2014-Sep-23 01:00N 69°36' E 018°54'3 7.1 120 / 41021.2 2.6-2.7 7.6
2014-Sep-23 00:32N 69°39' E 018°58'3 6.1
2014-Sep-23 00:00N 69°36' E 018°54'3 6.4 240 1021.3 2.7-1.4 7.6
2014-Sep-22 23:29N 69°39' E 018°58'0 0.0
2014-Sep-22 22:32N 69°39' E 018°58'3 6.1
2014-Sep-22 22:00N 69°36' E 018°54'3 7.0 160 / 21021.7 3.1-0.8 7.4
2014-Sep-22 21:32N 69°39' E 018°58'3 6.1
2014-Sep-22 21:00N 69°36' E 018°54'3 7.0 210 / 21021.8 3.1-0.5 7.6
2014-Sep-22 20:32N 69°39' E 018°58'3 6.1
2014-Sep-22 20:00N 69°36' E 018°54'3 6.3 100 / 21022.0 3.1-0.5 7.6
2014-Sep-22 19:29N 69°39' E 018°58'3 6.7
2014-Sep-22 19:00N 69°36' E 018°54'3 7.0 080 / 21021.8 2.3-1.1 7.6
2014-Sep-22 18:32N 69°39' E 018°58'0 0.0
2014-Sep-22 17:29N 69°39' E 018°58'3 6.7
2014-Sep-22 17:00N 69°36' E 018°54'3 6.3 110 1021.8 3.7-1.2 7.8
2014-Sep-22 16:29N 69°39' E 018°58'3 6.8
2014-Sep-22 16:00N 69°36' E 018°54'3 7.0 100 / 21021.8 4.0-2.2 7.5
2014-Sep-22 15:32N 69°39' E 018°58'3 6.1
2014-Sep-22 15:00N 69°36' E 018°54'3 7.0 110 / 41021.7 3.7-2.1 7.6
2014-Sep-22 14:31N 69°39' E 018°58'1 0.5
2014-Sep-22 13:34N 69°39' E 018°58'4 6.7
2014-Sep-22 13:00N 69°36' E 018°54'4 8.4 100 / 41021.3 3.7-2.4 7.8
2014-Sep-22 12:33N 69°39' E 018°58'4 6.9
2014-Sep-22 12:00N 69°36' E 018°54'4 7.6 100 / 21021.2 4.9-2.2 7.8
2014-Sep-22 11:30N 69°39' E 018°58'4 7.6
2014-Sep-22 11:00N 69°36' E 018°54'4 8.4 080 / 21020.8 4.1-1.6 7.6
2014-Sep-22 10:33N 69°39' E 018°58'0 0.0
2014-Sep-22 09:29N 69°39' E 018°58'4 7.6
2014-Sep-22 09:00N 69°36' E 018°54'4 7.6 150 / 41020.1 3.1-1.9 7.6
2014-Sep-22 08:29N 69°39' E 018°58'0 0.0
2014-Sep-22 07:32N 69°39' E 018°58'4 6.9
2014-Sep-22 07:00N 69°36' E 018°54'510.5 190 / 41019.2 1.9-0.6 7.3
2014-Sep-22 06:31N 69°41' E 018°59'0 0.0
2014-Sep-22 05:31N 69°41' E 018°59'5 9.3
2014-Sep-22 05:00N 69°36' E 018°54'510.5 270 / 21018.1 1.0-0.2 7.5
2014-Sep-22 04:31N 69°41' E 018°59'0 0.0
2014-Sep-22 03:28N 69°41' E 018°59'0 0.0
2014-Sep-22 02:31N 69°41' E 018°59'0 0.0
2014-Sep-22 01:31N 69°41' E 018°59'5 9.4
2014-Sep-22 01:00N 69°36' E 018°54'510.4 220 / 81017.0 0.6-0.8 7.5
2014-Sep-22 00:31N 69°41' E 018°59'5 9.4
2014-Sep-22 00:00N 69°36' E 018°54'5 8.6 250 / 61017.0 0.6-1.2 7.5
2014-Sep-21 23:25N 69°41' E 018°59'511.6
2014-Sep-21 23:00N 69°36' E 018°54'510.4 250 / 61016.6 1.5-0.7 7.3
2014-Sep-21 22:31N 69°41' E 018°59'5 9.4
2014-Sep-21 22:00N 69°36' E 018°54'5 9.4 270 / 41016.6 1.5-0.8 7.5
2014-Sep-21 21:28N 69°41' E 018°59'510.4
2014-Sep-21 21:00N 69°36' E 018°54'510.4 230 / 41016.6 1.3-1.0 7.5
2014-Sep-21 20:31N 69°41' E 018°59'5 9.4
2014-Sep-21 20:00N 69°36' E 018°54'   180 / 21016.2 1.6-0.8 7.3

Dump ship's entire track history